North Stratford, NH (03590)

8:42 PM EST on February 06, 2016 (GMT -0500)
Island Pond | | Change Station
CLOSE
Current Station
Personal Weather Station
Location: Brighton, VT
Elevation: 1204 ft
Nearby Weather Stations

Elev 1204 ft 44.81 °N, 71.86 °W | Updated 30 seconds ago

Overcast
Overcast
31.2 °F
Feels Like 31 °F
N
0.0
Wind Variable Wind from SW
Gusts 7.0 mph

Today
High -- | Low -- °F
--% Chance of Precip.
Yesterday
High -- | Low -- °F
Precip. -- in
Pressure 30.10 in
Visibility 10.0 miles
Clouds Overcast 4200 ft
Windchill 31 °F
Dew Point 23 °F
Humidity 71%
Rainfall 0.00 in
Snow Depth Not available.
7:00 AM 5:01 PM
Waning Crescent, 3% visible
METAR KCDA 070135Z AUTO 14005KT 10SM OVC042 00/M06 A3010 RMK AO2 T00001065
Pressure 30.10 in
Visibility 10.0 miles
Clouds Overcast 4200 ft
Windchill 31 °F
Dew Point 23 °F
Humidity 71%
Rainfall 0.00 in
Snow Depth Not available.
7:00 AM 5:01 PM
Waning Crescent, 3% visible
METAR KCDA 070135Z AUTO 14005KT 10SM OVC042 00/M06 A3010 RMK AO2 T00001065

10-Day Weather Forecast

Almanac

Astronomy

Feb. 06, 2016 Rise Set
Actual Time
Civil Twilight
Nautical Twilight
Astronomical Twilight
Moon
Length of Visible Light
Length of Day
Tomorrow will be .
, % of the Moon is Illuminated

Today's Extremes

State Highs State Lows

Community

WunderPhotos

Upload Photos

1,891,123 photos uploaded!

WunderBlog® & News

Nearby

Air Quality

  Air Quality AQ Index Pollutant
Not available.

Snow Depth

Station Depth Elevation

Earthquake Activity

City Distance Mag. Time & Date
Minimum magnitude displayed is 2.5.

Coastal Water Temperatures

Place Temperature

Stations

Nearby Weather Stations

Station Location Temp. Windchill Dew Point Humidity Wind Precip. Elev Updated Type
                   

Watches & Warnings

There are currently no watches in effect.